sensor_id;sensor_type;location;lat;lon;timestamp;pressure;altitude;pressure_sealevel;temperature
65765;BMP180;52915;53.718;19.946;2023-10-09T00:00:26;100985.80;;;4.40
65765;BMP180;52915;53.718;19.946;2023-10-09T00:06:14;100985.00;;;4.30
65765;BMP180;52915;53.718;19.946;2023-10-09T00:11:19;100972.20;;;4.30
65765;BMP180;52915;53.718;19.946;2023-10-09T00:16:25;100965.20;;;4.30
65765;BMP180;52915;53.718;19.946;2023-10-09T00:21:41;100952.60;;;4.30
65765;BMP180;52915;53.718;19.946;2023-10-09T00:26:46;100940.80;;;4.30
65765;BMP180;52915;53.718;19.946;2023-10-09T00:31:52;100935.80;;;4.30
65765;BMP180;52915;53.718;19.946;2023-10-09T00:37:08;100926.20;;;4.30
65765;BMP180;52915;53.718;19.946;2023-10-09T00:42:27;100923.80;;;4.30
65765;BMP180;52915;53.718;19.946;2023-10-09T00:47:36;100926.40;;;4.30
65765;BMP180;52915;53.718;19.946;2023-10-09T00:52:48;100911.20;;;4.30
65765;BMP180;52915;53.718;19.946;2023-10-09T00:57:56;100896.40;;;4.30
65765;BMP180;52915;53.718;19.946;2023-10-09T01:03:03;100874.60;;;4.36
65765;BMP180;52915;53.718;19.946;2023-10-09T01:08:29;100876.20;;;4.30
65765;BMP180;52915;53.718;19.946;2023-10-09T01:13:48;100874.80;;;4.30
65765;BMP180;52915;53.718;19.946;2023-10-09T01:18:55;100873.60;;;4.30
65765;BMP180;52915;53.718;19.946;2023-10-09T01:24:01;100865.80;;;4.24
65765;BMP180;52915;53.718;19.946;2023-10-09T01:29:07;100866.60;;;4.22
65765;BMP180;52915;53.718;19.946;2023-10-09T01:34:33;100868.60;;;4.20
65765;BMP180;52915;53.718;19.946;2023-10-09T01:39:40;100871.60;;;4.20
65765;BMP180;52915;53.718;19.946;2023-10-09T01:44:45;100882.60;;;4.20
65765;BMP180;52915;53.718;19.946;2023-10-09T01:49:52;100892.80;;;4.16
65765;BMP180;52915;53.718;19.946;2023-10-09T01:55:01;100884.00;;;4.10
65765;BMP180;52915;53.718;19.946;2023-10-09T02:00:20;100865.40;;;4.10
65765;BMP180;52915;53.718;19.946;2023-10-09T02:05:28;100867.80;;;4.00
65765;BMP180;52915;53.718;19.946;2023-10-09T02:10:37;100861.00;;;4.00
65765;BMP180;52915;53.718;19.946;2023-10-09T02:15:43;100862.20;;;4.00
65765;BMP180;52915;53.718;19.946;2023-10-09T02:20:50;100865.20;;;4.00
65765;BMP180;52915;53.718;19.946;2023-10-09T02:26:03;100862.40;;;3.96
65765;BMP180;52915;53.718;19.946;2023-10-09T02:31:11;100860.40;;;3.90
65765;BMP180;52915;53.718;19.946;2023-10-09T02:36:16;100874.40;;;3.90
65765;BMP180;52915;53.718;19.946;2023-10-09T02:41:20;100887.20;;;3.90
65765;BMP180;52915;53.718;19.946;2023-10-09T02:46:24;100880.40;;;3.90
65765;BMP180;52915;53.718;19.946;2023-10-09T02:51:34;100870.20;;;3.90
65765;BMP180;52915;53.718;19.946;2023-10-09T02:56:47;100861.20;;;3.90
65765;BMP180;52915;53.718;19.946;2023-10-09T03:02:00;100857.00;;;3.90
65765;BMP180;52915;53.718;19.946;2023-10-09T03:07:05;100850.00;;;3.90
65765;BMP180;52915;53.718;19.946;2023-10-09T03:12:09;100857.20;;;3.90
65765;BMP180;52915;53.718;19.946;2023-10-09T03:17:16;100854.60;;;3.90
65765;BMP180;52915;53.718;19.946;2023-10-09T03:22:20;100831.80;;;3.84
65765;BMP180;52915;53.718;19.946;2023-10-09T03:27:25;100809.80;;;3.84
65765;BMP180;52915;53.718;19.946;2023-10-09T03:32:29;100810.80;;;3.90
65765;BMP180;52915;53.718;19.946;2023-10-09T03:37:33;100804.60;;;3.90
65765;BMP180;52915;53.718;19.946;2023-10-09T03:42:38;100798.80;;;3.90
65765;BMP180;52915;53.718;19.946;2023-10-09T03:47:45;100797.80;;;3.90
65765;BMP180;52915;53.718;19.946;2023-10-09T03:52:53;100779.20;;;3.90
65765;BMP180;52915;53.718;19.946;2023-10-09T03:57:59;100776.80;;;3.90
65765;BMP180;52915;53.718;19.946;2023-10-09T04:03:04;100754.00;;;3.90
65765;BMP180;52915;53.718;19.946;2023-10-09T04:08:11;100752.60;;;3.90
65765;BMP180;52915;53.718;19.946;2023-10-09T04:13:23;100751.20;;;3.90
65765;BMP180;52915;53.718;19.946;2023-10-09T04:18:36;100749.20;;;3.90
65765;BMP180;52915;53.718;19.946;2023-10-09T04:23:42;100756.00;;;3.90
65765;BMP180;52915;53.718;19.946;2023-10-09T04:29:24;100748.40;;;3.90
65765;BMP180;52915;53.718;19.946;2023-10-09T04:34:31;100747.80;;;3.90
65765;BMP180;52915;53.718;19.946;2023-10-09T04:39:53;100734.80;;;3.90
65765;BMP180;52915;53.718;19.946;2023-10-09T04:45:16;100744.00;;;3.80
65765;BMP180;52915;53.718;19.946;2023-10-09T04:50:20;100739.60;;;3.80
65765;BMP180;52915;53.718;19.946;2023-10-09T04:55:45;100738.60;;;3.80
65765;BMP180;52915;53.718;19.946;2023-10-09T05:00:59;100738.40;;;3.80
65765;BMP180;52915;53.718;19.946;2023-10-09T05:06:05;100737.60;;;3.80
65765;BMP180;52915;53.718;19.946;2023-10-09T05:11:30;100758.00;;;3.86
65765;BMP180;52915;53.718;19.946;2023-10-09T05:16:54;100761.40;;;3.90
65765;BMP180;52915;53.718;19.946;2023-10-09T05:28:27;100747.00;;;4.00
65765;BMP180;52915;53.718;19.946;2023-10-09T05:33:52;100722.60;;;4.12
65765;BMP180;52915;53.718;19.946;2023-10-09T05:59:24;100717.80;;;4.50
65765;BMP180;52915;53.718;19.946;2023-10-09T06:05:38;100715.80;;;4.58
65765;BMP180;52915;53.718;19.946;2023-10-09T06:10:45;100720.60;;;4.60
65765;BMP180;52915;53.718;19.946;2023-10-09T06:16:42;100714.20;;;4.60
65765;BMP180;52915;53.718;19.946;2023-10-09T06:21:47;100709.20;;;4.70
65765;BMP180;52915;53.718;19.946;2023-10-09T06:27:22;100703.00;;;4.80
65765;BMP180;52915;53.718;19.946;2023-10-09T06:38:57;100700.60;;;4.90
65765;BMP180;52915;53.718;19.946;2023-10-09T06:52:18;100695.20;;;5.14
65765;BMP180;52915;53.718;19.946;2023-10-09T07:18:10;100703.60;;;5.98
65765;BMP180;52915;53.718;19.946;2023-10-09T07:23:27;100702.20;;;6.10
65765;BMP180;52915;53.718;19.946;2023-10-09T07:36:01;100713.00;;;6.40
65765;BMP180;52915;53.718;19.946;2023-10-09T07:41:11;100709.80;;;6.50
65765;BMP180;52915;53.718;19.946;2023-10-09T07:46:18;100713.60;;;6.70
65765;BMP180;52915;53.718;19.946;2023-10-09T07:51:49;100713.40;;;6.90
65765;BMP180;52915;53.718;19.946;2023-10-09T07:57:22;100711.20;;;7.02
65765;BMP180;52915;53.718;19.946;2023-10-09T08:02:57;100711.60;;;7.22
65765;BMP180;52915;53.718;19.946;2023-10-09T08:15:57;100721.20;;;7.40
65765;BMP180;52915;53.718;19.946;2023-10-09T08:21:48;100722.80;;;7.50
65765;BMP180;52915;53.718;19.946;2023-10-09T08:34:16;100710.60;;;7.60
65765;BMP180;52915;53.718;19.946;2023-10-09T08:39:32;100716.60;;;7.70
65765;BMP180;52915;53.718;19.946;2023-10-09T08:44:42;100700.40;;;7.70
65765;BMP180;52915;53.718;19.946;2023-10-09T08:56:11;100683.80;;;8.10
65765;BMP180;52915;53.718;19.946;2023-10-09T09:01:49;100671.60;;;8.26
65765;BMP180;52915;53.718;19.946;2023-10-09T09:06:55;100662.00;;;8.46
65765;BMP180;52915;53.718;19.946;2023-10-09T09:12:15;100650.40;;;8.70
65765;BMP180;52915;53.718;19.946;2023-10-09T09:17:33;100650.20;;;9.10
65765;BMP180;52915;53.718;19.946;2023-10-09T09:22:59;100643.80;;;9.40
65765;BMP180;52915;53.718;19.946;2023-10-09T09:28:08;100638.40;;;9.70
65765;BMP180;52915;53.718;19.946;2023-10-09T09:40:24;100639.20;;;10.26
65765;BMP180;52915;53.718;19.946;2023-10-09T09:46:04;100642.60;;;10.60
65765;BMP180;52915;53.718;19.946;2023-10-09T09:51:13;100633.80;;;11.00
65765;BMP180;52915;53.718;19.946;2023-10-09T10:04:17;100627.20;;;12.40
65765;BMP180;52915;53.718;19.946;2023-10-09T10:17:07;100635.40;;;13.52
65765;BMP180;52915;53.718;19.946;2023-10-09T10:36:23;100622.60;;;14.50
65765;BMP180;52915;53.718;19.946;2023-10-09T10:41:34;100615.80;;;14.50
65765;BMP180;52915;53.718;19.946;2023-10-09T10:47:37;100617.20;;;14.30
65765;BMP180;52915;53.718;19.946;2023-10-09T10:52:44;100610.40;;;13.92
65765;BMP180;52915;53.718;19.946;2023-10-09T10:58:17;100607.40;;;13.80
65765;BMP180;52915;53.718;19.946;2023-10-09T11:03:28;100592.20;;;14.10
65765;BMP180;52915;53.718;19.946;2023-10-09T11:09:17;100578.20;;;14.96
65765;BMP180;52915;53.718;19.946;2023-10-09T11:14:31;100579.40;;;15.56
65765;BMP180;52915;53.718;19.946;2023-10-09T11:19:48;100576.00;;;15.90
65765;BMP180;52915;53.718;19.946;2023-10-09T11:25:48;100577.80;;;16.10
65765;BMP180;52915;53.718;19.946;2023-10-09T11:31:09;100587.80;;;16.60
65765;BMP180;52915;53.718;19.946;2023-10-09T11:36:29;100587.80;;;16.36
65765;BMP180;52915;53.718;19.946;2023-10-09T11:41:43;100587.40;;;16.30
65765;BMP180;52915;53.718;19.946;2023-10-09T11:47:01;100587.60;;;16.50
65765;BMP180;52915;53.718;19.946;2023-10-09T11:52:23;100583.60;;;16.34
65765;BMP180;52915;53.718;19.946;2023-10-09T11:57:40;100579.20;;;16.10
65765;BMP180;52915;53.718;19.946;2023-10-09T12:02:45;100561.00;;;16.26
65765;BMP180;52915;53.718;19.946;2023-10-09T12:07:49;100556.40;;;16.80
65765;BMP180;52915;53.718;19.946;2023-10-09T12:12:59;100557.60;;;17.34
65765;BMP180;52915;53.718;19.946;2023-10-09T12:18:08;100557.80;;;17.30
65765;BMP180;52915;53.718;19.946;2023-10-09T12:23:20;100554.80;;;16.80
65765;BMP180;52915;53.718;19.946;2023-10-09T12:28:31;100550.00;;;16.80
65765;BMP180;52915;53.718;19.946;2023-10-09T12:33:44;100541.80;;;16.70
65765;BMP180;52915;53.718;19.946;2023-10-09T12:38:49;100532.60;;;16.90
65765;BMP180;52915;53.718;19.946;2023-10-09T12:44:05;100531.60;;;16.50
65765;BMP180;52915;53.718;19.946;2023-10-09T12:49:16;100507.80;;;16.18
65765;BMP180;52915;53.718;19.946;2023-10-09T12:54:20;100499.00;;;15.80
65765;BMP180;52915;53.718;19.946;2023-10-09T12:59:27;100497.20;;;16.22
65765;BMP180;52915;53.718;19.946;2023-10-09T13:04:31;100504.40;;;16.80
65765;BMP180;52915;53.718;19.946;2023-10-09T13:09:36;100497.60;;;17.20
65765;BMP180;52915;53.718;19.946;2023-10-09T13:14:47;100495.40;;;18.08
65765;BMP180;52915;53.718;19.946;2023-10-09T13:19:53;100502.40;;;18.86
65765;BMP180;52915;53.718;19.946;2023-10-09T13:24:58;100491.20;;;19.88
65765;BMP180;52915;53.718;19.946;2023-10-09T13:30:10;100500.00;;;21.70
65765;BMP180;52915;53.718;19.946;2023-10-09T13:35:26;100482.80;;;24.32
65765;BMP180;52915;53.718;19.946;2023-10-09T13:40:41;100460.00;;;27.82
65765;BMP180;52915;53.718;19.946;2023-10-09T13:45:45;100415.40;;;29.56
65765;BMP180;52915;53.718;19.946;2023-10-09T13:51:15;100424.20;;;30.40
65765;BMP180;52915;53.718;19.946;2023-10-09T13:56:27;100429.80;;;30.16
65765;BMP180;52915;53.718;19.946;2023-10-09T14:01:31;100423.60;;;30.80
65765;BMP180;52915;53.718;19.946;2023-10-09T14:39:56;100509.40;;;20.30
65765;BMP180;52915;53.718;19.946;2023-10-09T14:56:51;100517.20;;;16.74
65765;BMP180;52915;53.718;19.946;2023-10-09T15:01:58;100528.60;;;15.94
65765;BMP180;52915;53.718;19.946;2023-10-09T15:07:06;100540.20;;;15.30
65765;BMP180;52915;53.718;19.946;2023-10-09T15:12:36;100534.40;;;14.76
65765;BMP180;52915;53.718;19.946;2023-10-09T15:17:46;100534.20;;;14.20
65765;BMP180;52915;53.718;19.946;2023-10-09T15:30:02;100535.20;;;13.40
65765;BMP180;52915;53.718;19.946;2023-10-09T15:35:07;100542.20;;;13.10
65765;BMP180;52915;53.718;19.946;2023-10-09T15:40:14;100541.40;;;12.90
65765;BMP180;52915;53.718;19.946;2023-10-09T15:45:56;100543.20;;;12.56
65765;BMP180;52915;53.718;19.946;2023-10-09T15:58:31;100544.00;;;11.84
65765;BMP180;52915;53.718;19.946;2023-10-09T16:04:04;100540.20;;;11.50
65765;BMP180;52915;53.718;19.946;2023-10-09T16:09:09;100551.40;;;11.30
65765;BMP180;52915;53.718;19.946;2023-10-09T16:21:43;100565.20;;;10.70
65765;BMP180;52915;53.718;19.946;2023-10-09T16:27:16;100569.20;;;10.40
65765;BMP180;52915;53.718;19.946;2023-10-09T16:39:35;100587.60;;;9.70
65765;BMP180;52915;53.718;19.946;2023-10-09T16:52:30;100582.40;;;9.10
65765;BMP180;52915;53.718;19.946;2023-10-09T16:57:41;100588.00;;;8.80
65765;BMP180;52915;53.718;19.946;2023-10-09T17:03:09;100587.60;;;8.60
65765;BMP180;52915;53.718;19.946;2023-10-09T17:22:31;100595.00;;;7.84
65765;BMP180;52915;53.718;19.946;2023-10-09T17:32:11;100607.20;;;7.38
65765;BMP180;52915;53.718;19.946;2023-10-09T17:37:15;100605.20;;;7.30
65765;BMP180;52915;53.718;19.946;2023-10-09T17:42:20;100603.80;;;7.10
65765;BMP180;52915;53.718;19.946;2023-10-09T17:48:21;100614.60;;;7.00
65765;BMP180;52915;53.718;19.946;2023-10-09T17:53:54;100614.80;;;6.80
65765;BMP180;52915;53.718;19.946;2023-10-09T17:59:26;100615.60;;;6.62
65765;BMP180;52915;53.718;19.946;2023-10-09T18:04:57;100623.60;;;6.50
65765;BMP180;52915;53.718;19.946;2023-10-09T18:10:01;100616.40;;;6.40
65765;BMP180;52915;53.718;19.946;2023-10-09T18:21:22;100611.60;;;6.30
65765;BMP180;52915;53.718;19.946;2023-10-09T18:33:51;100611.80;;;6.20
65765;BMP180;52915;53.718;19.946;2023-10-09T18:39:47;100610.20;;;6.20
65765;BMP180;52915;53.718;19.946;2023-10-09T18:52:13;100617.20;;;6.20
65765;BMP180;52915;53.718;19.946;2023-10-09T19:11:15;100627.00;;;6.28
65765;BMP180;52915;53.718;19.946;2023-10-09T19:22:52;100621.00;;;6.10
65765;BMP180;52915;53.718;19.946;2023-10-09T19:28:42;100625.00;;;6.00
65765;BMP180;52915;53.718;19.946;2023-10-09T19:33:53;100626.20;;;5.90
65765;BMP180;52915;53.718;19.946;2023-10-09T19:39:22;100620.80;;;5.90
65765;BMP180;52915;53.718;19.946;2023-10-09T19:58:09;100629.00;;;5.70
65765;BMP180;52915;53.718;19.946;2023-10-09T20:14:26;100627.60;;;5.50
65765;BMP180;52915;53.718;19.946;2023-10-09T20:19:31;100627.20;;;5.40
65765;BMP180;52915;53.718;19.946;2023-10-09T20:25:31;100640.80;;;5.30
65765;BMP180;52915;53.718;19.946;2023-10-09T21:00:17;100632.40;;;4.60
65765;BMP180;52915;53.718;19.946;2023-10-09T21:13:16;100631.80;;;4.40
65765;BMP180;52915;53.718;19.946;2023-10-09T21:18:44;100632.20;;;4.30
65765;BMP180;52915;53.718;19.946;2023-10-09T21:23:49;100634.00;;;4.20
65765;BMP180;52915;53.718;19.946;2023-10-09T21:29:15;100639.60;;;4.10
65765;BMP180;52915;53.718;19.946;2023-10-09T21:35:12;100633.00;;;4.00
65765;BMP180;52915;53.718;19.946;2023-10-09T21:40:26;100634.80;;;3.90
65765;BMP180;52915;53.718;19.946;2023-10-09T21:52:18;100634.20;;;3.70
65765;BMP180;52915;53.718;19.946;2023-10-09T21:57:32;100632.00;;;3.70
65765;BMP180;52915;53.718;19.946;2023-10-09T22:02:37;100631.40;;;3.80
65765;BMP180;52915;53.718;19.946;2023-10-09T22:07:44;100638.40;;;4.06
65765;BMP180;52915;53.718;19.946;2023-10-09T22:12:50;100638.60;;;4.10
65765;BMP180;52915;53.718;19.946;2023-10-09T22:17:56;100644.80;;;4.20
65765;BMP180;52915;53.718;19.946;2023-10-09T22:23:01;100646.20;;;4.20
65765;BMP180;52915;53.718;19.946;2023-10-09T22:28:07;100641.40;;;4.20
65765;BMP180;52915;53.718;19.946;2023-10-09T22:33:14;100642.40;;;4.14
65765;BMP180;52915;53.718;19.946;2023-10-09T22:38:24;100646.40;;;4.10
65765;BMP180;52915;53.718;19.946;2023-10-09T22:43:33;100650.00;;;4.10
65765;BMP180;52915;53.718;19.946;2023-10-09T22:48:38;100655.80;;;4.10
65765;BMP180;52915;53.718;19.946;2023-10-09T22:53:45;100654.60;;;4.10
65765;BMP180;52915;53.718;19.946;2023-10-09T22:58:51;100659.00;;;4.02
65765;BMP180;52915;53.718;19.946;2023-10-09T23:03:57;100663.40;;;4.00
65765;BMP180;52915;53.718;19.946;2023-10-09T23:09:20;100664.40;;;4.00
65765;BMP180;52915;53.718;19.946;2023-10-09T23:14:54;100659.80;;;4.00
65765;BMP180;52915;53.718;19.946;2023-10-09T23:20:01;100662.60;;;4.08
65765;BMP180;52915;53.718;19.946;2023-10-09T23:25:07;100667.40;;;4.10
65765;BMP180;52915;53.718;19.946;2023-10-09T23:30:20;100673.80;;;4.10
65765;BMP180;52915;53.718;19.946;2023-10-09T23:35:27;100671.60;;;4.10
65765;BMP180;52915;53.718;19.946;2023-10-09T23:40:48;100678.20;;;4.10
65765;BMP180;52915;53.718;19.946;2023-10-09T23:45:57;100674.60;;;4.00
65765;BMP180;52915;53.718;19.946;2023-10-09T23:51:02;100681.40;;;4.00
65765;BMP180;52915;53.718;19.946;2023-10-09T23:56:06;100685.20;;;4.00
